»·PEaware :: N529B KIFP-KTRM

N529B :: KIFP-KTRM

FLIGHT INFORMATION

Flight Status: Arrived
Operator: Privately registered:
United States
More flights under this callsign
Pilot: Kim B. (19519)
Aircraft: Unknown
(B29)
More flights by this aircraft type
Origin: KIFP Laughlin/Bullhead Intl
United States
Destination: KTRM Desert Resorts Regl
United States
More flights between these airports :: More routes between these airports
Route: +EED V208 TRM
File this flight plan on PilotEdge
Remarks:
Altitude:
(Current/Filed)
8,000ft
Speed:
(Current/Filed)
170kts
Departed: 29-Sep-18 06:10 PM
Arrived: 29-Sep-18 06:56 PM
Distance/Time
Traveled:
121nm/0:46
Distance/Time
To Go:
Arrived

Flight Plot

Page will automatically refresh every two minutes.


Map Options




Map Legend


Flown Route
Filed Route
Departure Airport
Arrival Airport
Navaid (VOR, NDB)
Fix

Horizontal Profiles

Position Reports

Time Latitude Longitude Heading Altitude Ground
Speed
29-Sep-18 17:48 35.164060 -114.556402 267 670ft 0kts
29-Sep-18 17:49 35.164060 -114.556402 267 670ft 0kts
29-Sep-18 17:50 35.164060 -114.556402 267 670ft 0kts
29-Sep-18 17:51 35.164060 -114.556402 267 670ft 0kts
29-Sep-18 17:52 35.164060 -114.556402 267 670ft 0kts
29-Sep-18 17:53 35.164060 -114.556402 267 670ft 0kts
29-Sep-18 17:54 35.164060 -114.556402 267 670ft 0kts
29-Sep-18 17:55 35.164060 -114.556402 267 670ft 0kts
29-Sep-18 17:56 35.164060 -114.556402 267 670ft 0kts
29-Sep-18 17:57 35.164060 -114.556402 267 670ft 0kts
29-Sep-18 17:58 35.164060 -114.556402 267 670ft 0kts
29-Sep-18 17:59 35.164060 -114.556402 267 670ft 0kts
29-Sep-18 18:00 35.164060 -114.556402 267 670ft 0kts
29-Sep-18 18:01 35.164060 -114.556402 267 670ft 0kts
29-Sep-18 18:02 35.164060 -114.556402 267 670ft 0kts
29-Sep-18 18:03 35.164060 -114.556402 267 670ft 0kts
29-Sep-18 18:04 35.164060 -114.556402 267 670ft 0kts
29-Sep-18 18:05 35.164060 -114.556402 267 670ft 0kts
29-Sep-18 18:06 35.164060 -114.556402 267 670ft 0kts
29-Sep-18 18:07 35.164060 -114.556402 267 670ft 0kts
29-Sep-18 18:08 35.164060 -114.556402 267 670ft 0kts
29-Sep-18 18:09 35.164198 -114.556971 327 665ft 11kts
29-Sep-18 18:10 35.166246 -114.559251 253 639ft 0kts
29-Sep-18 18:11 35.166130 -114.559799 240 634ft 12kts
29-Sep-18 18:12 35.151425 -114.559111 176 670ft 122kts
29-Sep-18 18:13 35.115750 -114.554476 169 1674ft 128kts
29-Sep-18 18:14 35.079090 -114.545968 169 2512ft 140kts
29-Sep-18 18:15 35.037767 -114.536455 169 3108ft 164kts
29-Sep-18 18:16 34.989695 -114.525405 169 3686ft 187kts
29-Sep-18 18:17 34.937243 -114.513347 169 4516ft 193kts
29-Sep-18 18:18 34.884617 -114.501246 169 5412ft 193kts
29-Sep-18 18:19 34.831757 -114.489102 169 6306ft 193kts
29-Sep-18 18:20 34.779340 -114.477109 169 7195ft 191kts
29-Sep-18 18:21 34.731207 -114.456507 121 8026ft 191kts
29-Sep-18 18:22 34.728639 -114.385143 81 7986ft 233kts
29-Sep-18 18:23 34.778756 -114.345723 344 7985ft 246kts
29-Sep-18 18:24 34.808860 -114.411488 267 7981ft 243kts
29-Sep-18 18:25 34.769787 -114.466293 194 7985ft 235kts
29-Sep-18 18:26 34.735121 -114.527327 247 7978ft 230kts
29-Sep-18 18:27 34.705354 -114.595524 239 7977ft 227kts
29-Sep-18 18:28 34.673651 -114.659905 238 7977ft 226kts
29-Sep-18 18:29 34.641299 -114.724868 238 7977ft 225kts
29-Sep-18 18:30 34.608995 -114.789563 238 7977ft 224kts
29-Sep-18 18:31 34.576872 -114.853777 238 7977ft 223kts
29-Sep-18 18:32 34.544543 -114.918281 238 7977ft 224kts
29-Sep-18 18:33 34.512170 -114.982761 238 7977ft 224kts
29-Sep-18 18:34 34.479526 -115.047660 238 7977ft 225kts
29-Sep-18 18:35 34.447003 -115.112201 238 7977ft 225kts
29-Sep-18 18:36 34.414208 -115.177163 238 7977ft 226kts
29-Sep-18 18:37 34.381325 -115.242181 238 7977ft 226kts
29-Sep-18 18:38 34.348446 -115.307071 238 7977ft 226kts
29-Sep-18 18:39 34.315697 -115.371587 238 7977ft 226kts
29-Sep-18 18:40 34.282661 -115.436548 238 7977ft 226kts
29-Sep-18 18:41 34.249658 -115.501330 238 7977ft 226kts
29-Sep-18 18:42 34.216574 -115.566151 238 7977ft 227kts
29-Sep-18 18:43 34.183443 -115.630946 238 7977ft 227kts
29-Sep-18 18:44 34.150348 -115.695551 237 7977ft 227kts
29-Sep-18 18:45 34.117218 -115.760132 238 7977ft 227kts
29-Sep-18 18:46 34.068186 -115.805551 213 7975ft 220kts
29-Sep-18 18:47 34.018102 -115.845849 213 7973ft 212kts
29-Sep-18 18:48 33.970871 -115.883903 213 7971ft 196kts
29-Sep-18 18:49 33.927140 -115.919078 213 7971ft 182kts
29-Sep-18 18:50 33.886783 -115.951488 213 7970ft 168kts
29-Sep-18 18:51 33.849435 -115.981453 213 7973ft 156kts
29-Sep-18 18:52 33.811413 -116.011941 213 7987ft 174kts
29-Sep-18 18:53 33.769040 -116.045897 213 7984ft 192kts
29-Sep-18 18:54 33.722769 -116.082917 213 7865ft 213kts
29-Sep-18 18:55 33.670126 -116.125002 213 7482ft 210kts
29-Sep-18 18:56 33.631524 -116.161348 253 5454ft 188kts
29-Sep-18 18:57 33.638791 -116.160268 6 1592ft 187kts
29-Sep-18 18:58 33.616379 -116.156419 359 -107ft 20kts
29-Sep-18 18:59 33.629687 -116.157414 274 -107ft 9kts
29-Sep-18 19:00 33.631079 -116.157702 2 -107ft 2kts
29-Sep-18 19:01 33.634123 -116.158007 274 -107ft 13kts
29-Sep-18 19:02 33.634758 -116.162545 177 -107ft 10kts
29-Sep-18 19:03 33.634680 -116.162543 178 -107ft 0kts
29-Sep-18 19:04 33.634680 -116.162543 178 -107ft 0kts
29-Sep-18 19:05 33.634680 -116.162543 178 -107ft 0kts
29-Sep-18 19:06 33.634680 -116.162543 178 -107ft 0kts
29-Sep-18 19:07 33.634680 -116.162543 178 -107ft 0kts
29-Sep-18 19:08 33.634680 -116.162543 178 -107ft 0kts
29-Sep-18 19:09 33.634680 -116.162543 178 -107ft 0kts
29-Sep-18 19:10 33.634680 -116.162543 178 -107ft 0kts
29-Sep-18 19:11 33.634680 -116.162543 178 -107ft 0kts
29-Sep-18 19:12 33.634680 -116.162543 178 -107ft 0kts

Navigation Log

Ident Type
1. KIFP Airport
2. EED Navaid
3. TNP Navaid
4. CLOWD Fix
5. CONES Fix
6. TRM Navaid
7. KTRM Airport